createdAt,value
2017-12-24T00:01:56.667Z,9.66
2017-12-24T00:04:24.248Z,9.63
2017-12-24T00:06:51.892Z,9.70
2017-12-24T00:09:19.495Z,9.66
2017-12-24T00:11:47.100Z,9.67
2017-12-24T00:14:14.765Z,9.70
2017-12-24T00:16:42.353Z,9.68
2017-12-24T00:19:09.948Z,9.71
2017-12-24T00:21:37.573Z,9.72
2017-12-24T00:24:05.539Z,9.76
2017-12-24T00:26:33.164Z,9.70
2017-12-24T00:29:00.762Z,9.67
2017-12-24T00:31:28.376Z,9.78
2017-12-24T00:33:56.279Z,9.68
2017-12-24T00:36:24.133Z,9.66
2017-12-24T00:38:51.728Z,9.71
2017-12-24T00:41:19.357Z,9.71
2017-12-24T00:43:46.935Z,9.71
2017-12-24T00:46:14.519Z,9.72
2017-12-24T00:48:42.153Z,9.80
2017-12-24T00:51:09.731Z,9.77
2017-12-24T00:53:37.575Z,9.86
2017-12-24T00:56:05.220Z,9.80
2017-12-24T00:58:32.812Z,9.76
2017-12-24T01:01:00.380Z,9.83
2017-12-24T01:03:28.003Z,9.81
2017-12-24T01:05:55.596Z,9.82
2017-12-24T01:08:23.246Z,9.92
2017-12-24T01:10:50.860Z,9.82
2017-12-24T01:13:18.484Z,9.82
2017-12-24T01:15:46.438Z,9.85
2017-12-24T01:18:14.031Z,9.88
2017-12-24T01:20:41.656Z,9.84
2017-12-24T01:23:09.246Z,9.82
2017-12-24T01:25:36.836Z,9.83
2017-12-24T01:28:04.750Z,9.81
2017-12-24T01:30:32.623Z,9.83
2017-12-24T01:33:00.255Z,9.90
2017-12-24T01:35:27.841Z,9.95
2017-12-24T01:37:55.449Z,9.93
2017-12-24T01:40:23.065Z,9.91
2017-12-24T01:42:50.693Z,9.97
2017-12-24T01:45:18.315Z,9.91
2017-12-24T01:47:51.784Z,9.93
2017-12-24T01:50:19.434Z,9.88
2017-12-24T01:52:47.039Z,9.90
2017-12-24T01:55:14.650Z,9.93
2017-12-24T01:57:42.276Z,9.93
2017-12-24T02:00:09.870Z,9.95
2017-12-24T02:02:37.500Z,10.05
2017-12-24T02:05:05.101Z,9.92
2017-12-24T02:07:32.688Z,9.90
2017-12-24T02:10:00.312Z,9.92
2017-12-24T02:12:28.216Z,9.88
2017-12-24T02:14:55.849Z,9.86
2017-12-24T02:17:23.456Z,9.88
2017-12-24T02:19:51.062Z,9.96
2017-12-24T02:22:18.686Z,9.89
2017-12-24T02:24:46.276Z,9.91
2017-12-24T02:27:14.193Z,9.92
2017-12-24T02:29:41.803Z,9.89
2017-12-24T02:32:09.401Z,9.98
2017-12-24T02:34:37.024Z,9.97
2017-12-24T02:37:04.634Z,10.04
2017-12-24T02:39:32.258Z,10.03
2017-12-24T02:41:59.891Z,9.99
2017-12-24T02:44:27.474Z,9.98
2017-12-24T02:46:55.100Z,10.04
2017-12-24T02:49:22.693Z,10.01
2017-12-24T02:51:50.621Z,10.02
2017-12-24T02:54:18.477Z,9.99
2017-12-24T02:56:46.363Z,10.02
2017-12-24T02:59:13.984Z,10.02
2017-12-24T03:01:41.599Z,10.01
2017-12-24T03:04:09.261Z,10.05
2017-12-24T03:06:36.894Z,10.02
2017-12-24T03:09:04.481Z,10.02
2017-12-24T03:11:32.112Z,10.07
2017-12-24T03:13:59.694Z,10.09
2017-12-24T03:16:27.312Z,10.09
2017-12-24T03:18:54.908Z,10.19
2017-12-24T03:21:22.500Z,10.15
2017-12-24T03:23:50.142Z,10.17
2017-12-24T03:26:17.755Z,10.13
2017-12-24T03:28:45.380Z,10.11
2017-12-24T03:31:12.965Z,10.15
2017-12-24T03:33:40.567Z,10.13
2017-12-24T03:36:08.169Z,10.13
2017-12-24T03:38:36.027Z,10.30
2017-12-24T03:41:03.993Z,10.23
2017-12-24T03:43:31.965Z,10.23
2017-12-24T03:45:59.546Z,10.25
2017-12-24T03:48:27.170Z,10.23
2017-12-24T03:50:54.765Z,10.14
2017-12-24T03:53:22.429Z,10.18
2017-12-24T03:55:50.033Z,10.16
2017-12-24T03:58:17.626Z,10.20
2017-12-24T04:00:45.247Z,10.20
2017-12-24T04:03:13.155Z,10.22
2017-12-24T04:05:40.783Z,10.18
2017-12-24T04:08:08.400Z,10.18
2017-12-24T04:10:36.007Z,10.27
2017-12-24T04:13:03.622Z,10.23
2017-12-24T04:15:31.224Z,10.28
2017-12-24T04:17:58.852Z,10.25
2017-12-24T04:20:26.805Z,10.18
2017-12-24T04:22:54.669Z,10.18
2017-12-24T04:25:22.293Z,10.27
2017-12-24T04:27:50.200Z,10.24
2017-12-24T04:30:17.841Z,10.24
2017-12-24T04:32:45.514Z,10.20
2017-12-24T04:35:13.109Z,10.17
2017-12-24T04:37:40.723Z,10.29
2017-12-24T04:40:08.301Z,10.30
2017-12-24T04:42:35.929Z,10.22
2017-12-24T04:45:03.525Z,10.21
2017-12-24T04:47:31.133Z,10.15
2017-12-24T04:49:58.756Z,10.13
2017-12-24T04:52:26.348Z,10.15
2017-12-24T04:54:53.986Z,10.17
2017-12-24T04:57:21.587Z,10.09
2017-12-24T04:59:49.170Z,10.23
2017-12-24T05:02:17.072Z,10.21
2017-12-24T05:04:44.666Z,10.15
2017-12-24T05:07:12.297Z,10.15
2017-12-24T05:09:39.895Z,10.17
2017-12-24T05:12:07.481Z,10.13
2017-12-24T05:14:35.389Z,10.16
2017-12-24T05:17:02.976Z,10.31
2017-12-24T05:19:30.601Z,10.22
2017-12-24T05:21:58.263Z,10.19
2017-12-24T05:24:25.869Z,10.13
2017-12-24T05:26:53.505Z,10.12
2017-12-24T05:29:21.100Z,10.11
2017-12-24T05:31:48.728Z,10.17
2017-12-24T05:34:16.328Z,10.22
2017-12-24T05:36:43.908Z,10.16
2017-12-24T05:39:11.554Z,10.16
2017-12-24T05:41:39.204Z,10.26
2017-12-24T05:44:06.837Z,10.29
2017-12-24T05:46:34.433Z,10.31
2017-12-24T05:49:02.074Z,10.19
2017-12-24T05:51:29.751Z,10.29
2017-12-24T05:53:57.336Z,10.19
2017-12-24T05:56:24.972Z,10.23
2017-12-24T05:58:52.559Z,10.16
2017-12-24T06:01:20.486Z,10.20
2017-12-24T06:03:48.953Z,10.18
2017-12-24T06:06:16.843Z,10.18
2017-12-24T06:08:44.476Z,10.17
2017-12-24T06:11:12.104Z,10.17
2017-12-24T06:13:40.339Z,10.11
2017-12-24T06:16:07.955Z,10.13
2017-12-24T06:18:35.542Z,10.15
2017-12-24T06:21:03.211Z,10.08
2017-12-24T06:23:31.116Z,10.13
2017-12-24T06:25:58.706Z,10.17
2017-12-24T06:28:26.323Z,10.14
2017-12-24T06:30:53.908Z,10.10
2017-12-24T06:33:21.547Z,10.18
2017-12-24T06:35:49.405Z,10.15
2017-12-24T06:38:16.999Z,10.16
2017-12-24T06:40:44.933Z,10.18
2017-12-24T06:43:12.540Z,10.18
2017-12-24T06:45:40.184Z,10.07
2017-12-24T06:48:07.806Z,10.10
2017-12-24T06:50:35.687Z,10.13
2017-12-24T06:53:03.341Z,10.02
2017-12-24T06:55:30.937Z,10.16
2017-12-24T06:57:58.572Z,10.06
2017-12-24T07:00:26.181Z,10.05
2017-12-24T07:02:53.796Z,10.07
2017-12-24T07:05:21.443Z,10.02
2017-12-24T07:07:49.044Z,10.07
2017-12-24T07:10:16.675Z,10.06
2017-12-24T07:12:44.555Z,10.12
2017-12-24T07:15:12.152Z,10.12
2017-12-24T07:17:40.081Z,10.07
2017-12-24T07:20:07.668Z,10.14
2017-12-24T07:22:35.299Z,10.16
2017-12-24T07:25:02.906Z,10.09
2017-12-24T07:27:30.516Z,10.13
2017-12-24T07:29:58.155Z,10.07
2017-12-24T07:32:26.069Z,10.06
2017-12-24T07:34:53.728Z,10.11
2017-12-24T07:37:21.327Z,10.15
2017-12-24T07:39:48.925Z,10.16
2017-12-24T07:42:16.548Z,10.16
2017-12-24T07:44:44.139Z,10.14
2017-12-24T07:47:11.792Z,10.18
2017-12-24T07:49:39.387Z,10.13
2017-12-24T07:52:07.264Z,10.17
2017-12-24T07:54:34.880Z,10.24
2017-12-24T07:57:02.476Z,10.14
2017-12-24T07:59:30.067Z,10.22
2017-12-24T08:01:57.685Z,10.25
2017-12-24T08:04:25.582Z,10.19
2017-12-24T08:06:53.449Z,10.16
2017-12-24T08:09:21.087Z,10.16
2017-12-24T08:11:48.696Z,10.14
2017-12-24T08:14:16.288Z,10.18
2017-12-24T08:16:43.916Z,10.24
2017-12-24T08:19:11.508Z,10.28
2017-12-24T08:21:39.097Z,10.26
2017-12-24T08:24:06.719Z,10.23
2017-12-24T08:26:34.308Z,10.22
2017-12-24T08:29:01.951Z,10.16
2017-12-24T08:31:29.544Z,10.15
2017-12-24T08:33:57.131Z,10.15
2017-12-24T08:36:24.752Z,10.18
2017-12-24T08:38:52.340Z,10.19
2017-12-24T08:41:19.974Z,10.12
2017-12-24T08:43:47.882Z,10.15
2017-12-24T08:46:15.502Z,10.24
2017-12-24T08:48:43.122Z,10.25
2017-12-24T08:51:10.714Z,10.28
2017-12-24T08:53:38.402Z,10.25
2017-12-24T08:56:06.010Z,10.17
2017-12-24T08:58:33.700Z,10.17
2017-12-24T09:01:01.333Z,10.11
2017-12-24T09:03:29.300Z,10.20
2017-12-24T09:05:57.269Z,10.20
2017-12-24T09:08:24.882Z,10.27
2017-12-24T09:10:52.468Z,10.20
2017-12-24T09:13:20.071Z,10.25
2017-12-24T09:15:47.715Z,10.33
2017-12-24T09:18:15.367Z,10.34
2017-12-24T09:20:42.953Z,10.27
2017-12-24T09:23:10.544Z,10.44
2017-12-24T09:25:38.168Z,10.44
2017-12-24T09:28:05.818Z,10.37
2017-12-24T09:30:33.460Z,10.38
2017-12-24T09:33:01.099Z,10.36
2017-12-24T09:35:28.712Z,10.33
2017-12-24T09:37:56.678Z,10.38
2017-12-24T09:40:24.544Z,10.40
2017-12-24T09:42:52.193Z,10.40
2017-12-24T09:45:20.077Z,10.40
2017-12-24T09:47:47.655Z,10.38
2017-12-24T09:50:15.609Z,10.38
2017-12-24T09:52:43.200Z,10.38
2017-12-24T09:55:10.825Z,10.38
2017-12-24T09:57:38.416Z,10.25
2017-12-24T10:00:06.006Z,10.39
2017-12-24T10:02:33.636Z,10.31
2017-12-24T10:05:01.480Z,10.32
2017-12-24T10:07:29.116Z,10.29
2017-12-24T10:09:56.723Z,10.32
2017-12-24T10:12:24.564Z,10.39
2017-12-24T10:14:52.230Z,10.30
2017-12-24T10:17:19.844Z,10.30
2017-12-24T10:19:47.503Z,10.30
2017-12-24T10:22:15.146Z,10.34
2017-12-24T10:24:42.748Z,10.35
2017-12-24T10:27:10.777Z,10.36
2017-12-24T10:29:38.379Z,10.35
2017-12-24T10:32:06.011Z,10.37
2017-12-24T10:34:33.660Z,10.49
2017-12-24T10:37:01.300Z,10.44
2017-12-24T10:39:28.923Z,10.41
2017-12-24T10:41:56.525Z,10.37
2017-12-24T10:44:24.158Z,10.41
2017-12-24T10:46:51.750Z,10.43
2017-12-24T10:49:19.627Z,10.43
2017-12-24T10:51:47.248Z,10.44
2017-12-24T10:54:14.917Z,10.56
2017-12-24T10:56:42.562Z,10.46
2017-12-24T10:59:10.163Z,10.59
2017-12-24T11:01:37.779Z,10.49
2017-12-24T11:04:05.641Z,10.42
2017-12-24T11:06:33.241Z,10.50
2017-12-24T11:09:00.904Z,10.62
2017-12-24T11:11:28.521Z,10.63
2017-12-24T11:13:56.147Z,10.52
2017-12-24T11:16:23.813Z,10.47
2017-12-24T11:18:51.409Z,10.47
2017-12-24T11:21:19.045Z,10.53
2017-12-24T11:23:46.652Z,10.55
2017-12-24T11:26:14.247Z,10.46
2017-12-24T11:28:41.872Z,10.45
2017-12-24T11:31:09.505Z,10.44
2017-12-24T11:33:37.152Z,10.40
2017-12-24T11:36:04.749Z,10.38
2017-12-24T11:38:32.686Z,10.36
2017-12-24T11:41:00.299Z,10.29
2017-12-24T11:43:28.235Z,10.32
2017-12-24T11:45:55.865Z,10.34
2017-12-24T11:48:23.450Z,10.39
2017-12-24T11:50:51.045Z,10.35
2017-12-24T11:53:18.790Z,10.31
2017-12-24T11:55:46.401Z,10.36
2017-12-24T11:58:14.072Z,10.37
2017-12-24T12:00:41.704Z,10.34
2017-12-24T12:03:09.316Z,10.50
2017-12-24T12:05:36.975Z,10.48
2017-12-24T12:08:04.588Z,10.44
2017-12-24T12:10:32.280Z,10.49
2017-12-24T12:12:59.880Z,10.49
2017-12-24T12:15:27.556Z,10.45
2017-12-24T12:17:55.257Z,10.35
2017-12-24T12:20:22.855Z,10.41
2017-12-24T12:22:50.524Z,10.42
2017-12-24T12:25:18.248Z,10.44
2017-12-24T12:27:45.877Z,10.45
2017-12-24T12:30:13.491Z,10.48
2017-12-24T12:32:41.128Z,10.47
2017-12-24T12:35:08.759Z,10.48
2017-12-24T12:37:36.374Z,10.39
2017-12-24T12:40:03.959Z,10.46
2017-12-24T12:42:31.933Z,10.50
2017-12-24T12:44:59.571Z,10.37
2017-12-24T12:47:27.190Z,10.42
2017-12-24T12:49:54.795Z,10.35
2017-12-24T12:52:22.393Z,10.41
2017-12-24T12:54:50.033Z,10.41
2017-12-24T12:57:17.672Z,10.44
2017-12-24T12:59:45.338Z,10.38
2017-12-24T13:02:12.924Z,10.43
2017-12-24T13:04:40.549Z,10.41
2017-12-24T13:07:08.192Z,10.52
2017-12-24T13:09:35.804Z,10.50
2017-12-24T13:12:03.537Z,10.57
2017-12-24T13:14:31.444Z,10.60
2017-12-24T13:16:59.064Z,10.54
2017-12-24T13:19:26.727Z,10.50
2017-12-24T13:21:54.321Z,10.55
2017-12-24T13:24:22.009Z,10.59
2017-12-24T13:26:49.607Z,10.51
2017-12-24T13:29:17.222Z,10.52
2017-12-24T13:31:44.849Z,10.57
2017-12-24T13:34:12.490Z,10.55
2017-12-24T13:36:40.455Z,10.56
2017-12-24T13:39:08.056Z,10.56
2017-12-24T13:41:35.682Z,10.60
2017-12-24T13:44:03.344Z,10.59
2017-12-24T13:46:30.961Z,10.62
2017-12-24T13:48:58.587Z,10.60
2017-12-24T13:51:26.180Z,10.53
2017-12-24T13:53:53.787Z,10.61
2017-12-24T13:56:21.414Z,10.64
2017-12-24T13:58:49.005Z,10.62
2017-12-24T14:01:16.665Z,10.61
2017-12-24T14:03:44.505Z,10.64
2017-12-24T14:06:12.128Z,10.67
2017-12-24T14:08:39.767Z,10.61
2017-12-24T14:11:07.362Z,10.67
2017-12-24T14:13:35.005Z,10.71
2017-12-24T14:16:02.637Z,10.64
2017-12-24T14:18:30.233Z,10.63
2017-12-24T14:20:57.916Z,10.66
2017-12-24T14:23:25.532Z,10.60
2017-12-24T14:25:53.214Z,10.61
2017-12-24T14:28:21.149Z,10.63
2017-12-24T14:30:48.750Z,10.53
2017-12-24T14:33:16.392Z,10.55
2017-12-24T14:35:44.031Z,10.62
2017-12-24T14:38:11.643Z,10.63
2017-12-24T14:40:39.294Z,10.66
2017-12-24T14:43:06.946Z,10.72
2017-12-24T14:45:35.031Z,10.61
2017-12-24T14:48:02.670Z,10.58
2017-12-24T14:50:30.269Z,10.65
2017-12-24T14:52:57.875Z,10.52
2017-12-24T14:55:25.535Z,10.56
2017-12-24T14:57:53.605Z,10.51
2017-12-24T15:00:21.581Z,10.56
2017-12-24T15:02:49.162Z,10.54
2017-12-24T15:05:16.801Z,10.56
2017-12-24T15:07:44.440Z,10.52
2017-12-24T15:10:12.051Z,10.54
2017-12-24T15:12:39.991Z,10.55
2017-12-24T15:15:07.579Z,10.50
2017-12-24T15:17:35.178Z,10.53
2017-12-24T15:20:02.804Z,10.48
2017-12-24T15:22:30.427Z,10.53
2017-12-24T15:24:58.120Z,10.52
2017-12-24T15:27:25.867Z,10.50
2017-12-24T15:29:53.468Z,10.57
2017-12-24T15:32:21.096Z,10.52
2017-12-24T15:34:48.730Z,10.52
2017-12-24T15:37:16.345Z,10.55
2017-12-24T15:39:43.932Z,10.57
2017-12-24T15:42:11.563Z,10.52
2017-12-24T15:44:39.158Z,10.49
2017-12-24T15:47:07.066Z,10.55
2017-12-24T15:49:34.689Z,10.50
2017-12-24T15:52:02.275Z,10.57
2017-12-24T15:54:29.935Z,10.53
2017-12-24T15:56:57.551Z,10.52
2017-12-24T15:59:25.188Z,10.51
2017-12-24T16:01:52.809Z,10.42
2017-12-24T16:04:20.403Z,10.44
2017-12-24T16:06:48.111Z,10.50
2017-12-24T16:09:15.707Z,10.50
2017-12-24T16:11:43.292Z,10.44
2017-12-24T16:14:11.261Z,10.47
2017-12-24T16:16:38.878Z,10.53
2017-12-24T16:19:06.515Z,10.40
2017-12-24T16:21:34.112Z,10.44
2017-12-24T16:24:01.708Z,10.38
2017-12-24T16:26:29.319Z,10.38
2017-12-24T16:28:56.925Z,10.31
2017-12-24T16:31:24.556Z,10.39
2017-12-24T16:33:52.198Z,10.35
2017-12-24T16:36:19.776Z,10.40
2017-12-24T16:38:47.473Z,10.35
2017-12-24T16:41:15.121Z,10.36
2017-12-24T16:43:42.768Z,10.33
2017-12-24T16:46:10.403Z,10.35
2017-12-24T16:48:38.012Z,10.32
2017-12-24T16:51:05.904Z,10.32
2017-12-24T16:53:33.508Z,10.25
2017-12-24T16:56:01.145Z,10.29
2017-12-24T16:58:28.735Z,10.22
2017-12-24T17:00:56.657Z,10.30
2017-12-24T17:03:24.293Z,10.25
2017-12-24T17:05:51.897Z,10.24
2017-12-24T17:08:19.531Z,10.22
2017-12-24T17:10:47.135Z,10.17
2017-12-24T17:13:14.757Z,10.18
2017-12-24T17:15:42.372Z,10.19
2017-12-24T17:18:10.401Z,10.24
2017-12-24T17:20:38.034Z,10.25
2017-12-24T17:23:05.621Z,10.24
2017-12-24T17:25:33.236Z,10.18
2017-12-24T17:28:01.155Z,10.16
2017-12-24T17:30:29.855Z,10.22
2017-12-24T17:32:57.501Z,10.12
2017-12-24T17:35:25.085Z,10.23
2017-12-24T17:37:52.662Z,10.15
2017-12-24T17:40:20.296Z,10.09
2017-12-24T17:42:47.912Z,10.14
2017-12-24T17:45:15.536Z,10.14
2017-12-24T17:47:43.221Z,10.10
2017-12-24T17:50:10.808Z,10.08
2017-12-24T17:52:38.444Z,10.10
2017-12-24T17:55:06.062Z,10.11
2017-12-24T17:57:34.032Z,10.13
2017-12-24T18:00:01.899Z,10.12
2017-12-24T18:02:29.764Z,10.07
2017-12-24T18:04:57.387Z,10.03
2017-12-24T18:07:24.970Z,10.09
2017-12-24T18:09:52.860Z,10.07
2017-12-24T18:12:20.444Z,10.15
2017-12-24T18:14:48.036Z,10.10
2017-12-24T18:17:15.646Z,10.07
2017-12-24T18:19:43.477Z,10.08
2017-12-24T18:22:11.104Z,10.11
2017-12-24T18:24:38.700Z,10.18
2017-12-24T18:27:06.283Z,10.11
2017-12-24T18:29:33.934Z,10.12
2017-12-24T18:32:01.587Z,10.04
2017-12-24T18:34:29.226Z,10.05
2017-12-24T18:36:56.949Z,10.06
2017-12-24T18:39:24.548Z,10.07
2017-12-24T18:41:52.156Z,10.08
2017-12-24T18:44:20.245Z,10.10
2017-12-24T18:46:47.877Z,10.17
2017-12-24T18:49:15.620Z,10.17
2017-12-24T18:51:43.541Z,10.08
2017-12-24T18:54:11.156Z,10.04
2017-12-24T18:56:38.750Z,10.06
2017-12-24T18:59:06.395Z,10.09
2017-12-24T19:01:35.366Z,10.07
2017-12-24T19:04:03.507Z,10.07
2017-12-24T19:06:31.190Z,10.06
2017-12-24T19:08:58.846Z,10.08
2017-12-24T19:11:26.602Z,10.10
2017-12-24T19:13:54.224Z,10.09
2017-12-24T19:16:21.828Z,10.13
2017-12-24T19:18:49.440Z,10.10
2017-12-24T19:21:17.044Z,10.13
2017-12-24T19:23:44.664Z,10.19
2017-12-24T19:26:12.264Z,10.13
2017-12-24T19:28:40.133Z,10.15
2017-12-24T19:31:07.747Z,10.25
2017-12-24T19:33:35.667Z,10.25
2017-12-24T19:36:03.392Z,10.23
2017-12-24T19:38:30.989Z,10.20
2017-12-24T19:40:58.591Z,10.27
2017-12-24T19:43:26.209Z,10.31
2017-12-24T19:45:53.814Z,10.32
2017-12-24T19:48:21.740Z,10.22
2017-12-24T19:50:49.334Z,10.28
2017-12-24T19:53:17.048Z,10.33
2017-12-24T19:55:44.661Z,10.33
2017-12-24T19:58:12.284Z,10.32
2017-12-24T20:00:40.166Z,10.36
2017-12-24T20:03:08.032Z,10.31
2017-12-24T20:05:35.695Z,10.31
2017-12-24T20:08:03.308Z,10.29
2017-12-24T20:10:30.897Z,10.25
2017-12-24T20:12:58.543Z,10.36
2017-12-24T20:15:26.366Z,10.33
2017-12-24T20:17:53.968Z,10.35
2017-12-24T20:20:21.875Z,10.32
2017-12-24T20:22:49.537Z,10.30
2017-12-24T20:25:17.176Z,10.28
2017-12-24T20:27:44.772Z,10.29
2017-12-24T20:30:12.624Z,10.28
2017-12-24T20:32:40.272Z,10.31
2017-12-24T20:35:07.860Z,10.34
2017-12-24T20:37:35.508Z,10.34
2017-12-24T20:40:03.102Z,10.34
2017-12-24T20:42:30.698Z,10.32
2017-12-24T20:44:58.316Z,10.34
2017-12-24T20:47:25.920Z,10.29
2017-12-24T20:49:53.548Z,10.34
2017-12-24T20:52:21.159Z,10.33
2017-12-24T20:54:48.749Z,10.33
2017-12-24T20:57:16.386Z,10.33
2017-12-24T20:59:44.029Z,10.37
2017-12-24T21:02:11.671Z,10.35
2017-12-24T21:04:39.269Z,10.39
2017-12-24T21:07:06.902Z,10.33
2017-12-24T21:09:34.824Z,10.39
2017-12-24T21:12:02.501Z,10.38
2017-12-24T21:14:30.126Z,10.34
2017-12-24T21:16:57.725Z,10.33
2017-12-24T21:19:25.604Z,10.36
2017-12-24T21:21:53.230Z,10.31
2017-12-24T21:24:20.875Z,10.25
2017-12-24T21:26:48.533Z,10.26
2017-12-24T21:29:16.123Z,10.21
2017-12-24T21:31:43.704Z,10.23
2017-12-24T21:34:11.344Z,10.20
2017-12-24T21:36:38.970Z,10.18
2017-12-24T21:39:06.638Z,10.18
2017-12-24T21:41:34.234Z,10.24
2017-12-24T21:44:01.855Z,10.15
2017-12-24T21:46:29.498Z,10.22
2017-12-24T21:48:57.103Z,10.21
2017-12-24T21:51:24.704Z,10.29
2017-12-24T21:53:52.330Z,10.31
2017-12-24T21:56:19.927Z,10.30
2017-12-24T21:58:47.514Z,10.32
2017-12-24T22:01:15.141Z,10.34
2017-12-24T22:03:42.737Z,10.33
2017-12-24T22:06:10.371Z,10.38
2017-12-24T22:08:37.977Z,10.37
2017-12-24T22:11:05.570Z,10.38
2017-12-24T22:13:33.184Z,10.32
2017-12-24T22:16:00.830Z,10.32
2017-12-24T22:18:28.493Z,10.33
2017-12-24T22:20:56.087Z,10.40
2017-12-24T22:23:23.686Z,10.40
2017-12-24T22:25:51.667Z,10.45
2017-12-24T22:28:19.266Z,10.39
2017-12-24T22:30:46.909Z,10.36
2017-12-24T22:33:14.534Z,10.36
2017-12-24T22:35:42.136Z,10.38
2017-12-24T22:38:09.752Z,10.39
2017-12-24T22:40:37.374Z,10.42
2017-12-24T22:43:05.015Z,10.42
2017-12-24T22:45:32.615Z,10.44
2017-12-24T22:48:00.238Z,10.45
2017-12-24T22:50:27.888Z,10.47
2017-12-24T22:52:55.492Z,10.53
2017-12-24T22:55:23.455Z,10.43
2017-12-24T22:57:51.067Z,10.47
2017-12-24T23:00:18.709Z,10.46
2017-12-24T23:02:46.332Z,10.43
2017-12-24T23:05:13.950Z,10.47
2017-12-24T23:07:41.607Z,10.47
2017-12-24T23:10:09.200Z,10.48
2017-12-24T23:12:36.801Z,10.47
2017-12-24T23:15:04.436Z,10.58
2017-12-24T23:17:32.019Z,10.55
2017-12-24T23:19:59.948Z,10.53
2017-12-24T23:22:27.545Z,10.53
2017-12-24T23:24:55.138Z,10.49
2017-12-24T23:27:22.763Z,10.54
2017-12-24T23:29:50.717Z,10.51
2017-12-24T23:32:18.356Z,10.54
2017-12-24T23:34:45.987Z,10.55
2017-12-24T23:37:13.571Z,10.52
2017-12-24T23:39:41.178Z,10.53
2017-12-24T23:42:09.122Z,10.54
2017-12-24T23:44:36.753Z,10.49
2017-12-24T23:47:04.345Z,10.53
2017-12-24T23:49:31.924Z,10.51
2017-12-24T23:51:59.876Z,10.50
2017-12-24T23:54:27.745Z,10.47
2017-12-24T23:56:55.394Z,10.46
2017-12-24T23:59:22.990Z,10.44
